Latest Weather Observations for Strahan

IDT60801

Issued at 3:32 pm EDT Thursday 19 January 2017 (issued every 30 minutes, with the page automatically refreshed every 10 minutes)

About weather observations | Map of weather stations | Latest weather observations for TAS | Other Formats
Station Details ID: 097072 Name: STRAHAN AERODROME Lat: -42.16 Lon: 145.29 Height: 21.0 m
Data from the previous 72 hours. | See also: Recent months at Strahan
Date/Time
EDT
Temp
°C
App
Temp
°C
Dew
Point
°C
Rel
Hum
%
Delta-T
°C
Wind Press
QNH
hPa
Press
MSL
hPa
Rain since
9am
mm
Dir  Spd
km/h
Gust
km/h
Spd
kts
Gust
kts
19/03:30pm 20.9 17.6 8.2 44 6.6 SSW 15 24 8 13 1010.7 1010.7 0.0
19/03:00pm 20.7 17.1 8.4 45 6.4 SSW 17 24 9 13 1011.4 1011.4 0.0
19/02:30pm 21.1 18.0 9.0 46 6.4 S 15 22 8 12 1012.2 1012.2 0.0
19/02:00pm 20.7 17.2 8.7 46 6.3 SW 17 26 9 14 1012.8 1012.8 0.0
19/01:30pm 20.1 16.1 8.1 46 6.2 SW 19 30 10 16 1013.3 1013.3 0.0
19/01:00pm 19.6 17.1 8.0 47 6.0 S 11 19 6 10 1013.9 1013.9 0.0
19/12:30pm 18.3 14.5 7.4 49 5.5 SSE 17 24 9 13 1014.5 1014.5 0.0
19/12:00pm 18.2 14.2 8.2 52 5.1 SSE 19 26 10 14 1014.9 1014.9 0.0
19/11:30am 16.7 12.3 7.4 54 4.7 S 20 30 11 16 1015.4 1015.4 0.0
19/11:00am 15.8 11.2 6.5 54 4.5 SSE 20 30 11 16 1015.9 1015.8 0.0
19/10:30am 15.5 10.4 6.2 54 4.5 SSE 22 32 12 17 1016.4 1016.3 0.0
19/10:00am 15.1 10.0 5.9 54 4.4 SSE 22 32 12 17 1016.8 1016.7 0.0
19/09:30am 14.6 9.9 6.2 57 4.0 SSE 20 30 11 16 1017.2 1017.1 0.0
19/09:00am 13.9 10.2 6.5 61 3.6 SE 15 22 8 12 1017.5 1017.4 0.2
19/08:30am 12.6 9.8 6.9 68 2.7 SSE 11 15 6 8 1017.8 1017.7 0.2
19/08:00am 10.9 9.1 8.0 82 1.4 SE 7 9 4 5 1017.7 1017.6 0.2
19/07:30am 8.7 7.3 7.2 90 0.7 NE 4 6 2 3 1017.7 1017.6 0.2
19/07:00am 7.0 4.7 5.8 92 0.5 NNE 7 9 4 5 1017.5 1017.4 0.2
19/06:30am 5.8 3.5 4.8 93 0.4 ENE 6 9 3 5 1017.3 1017.2 0.2
19/06:00am 5.4 2.8 4.1 91 0.5 ENE 7 9 4 5 1017.1 1017.0 0.2
19/05:30am 6.3 3.9 5.1 92 0.5 NE 7 9 4 5 1017.0 1016.9 0.2
19/05:00am 6.5 4.3 5.3 92 0.5 NNE 6 7 3 4 1016.9 1016.8 0.2
19/04:30am 6.5 4.1 5.1 91 0.6 N 7 11 4 6 1016.7 1016.6 0.2
19/04:00am 7.1 4.8 5.6 90 0.7 NNE 7 7 4 4 1016.8 1016.7 0.2
19/03:30am 7.2 4.9 5.5 89 0.8 NNE 7 9 4 5 1017.1 1017.0 0.2
19/03:00am 7.4 6.0 5.5 88 0.8 NE 2 6 1 3 1017.2 1017.1 0.2
19/02:30am 8.0 7.1 6.0 87 0.9 CALM 0 0 0 0 1017.7 1017.6 0.2
19/02:00am 7.6 6.2 5.6 87 0.9 NNE 2 7 1 4 1018.2 1018.1 0.2
19/01:30am 8.1 6.0 5.7 85 1.1 NNE 6 9 3 5 1018.4 1018.3 0.2
19/01:00am 8.2 5.9 5.8 85 1.1 NNE 7 9 4 5 1018.5 1018.4 0.2
19/12:30am 8.7 6.4 5.8 82 1.3 NNE 7 9 4 5 1018.5 1018.4 0.2
19/12:00am 9.7 7.6 5.9 77 1.7 NNE 6 9 3 5 1018.6 1018.5 0.2
 
Date/Time
EDT
Temp
°C
App
Temp
°C
Dew
Point
°C
Rel
Hum
%
Delta-T
°C
Wind Press
QNH
hPa
Press
MSL
hPa
Rain since
9am
mm
Dir  Spd
km/h
Gust
km/h
Spd
kts
Gust
kts
18/11:30pm 9.4 7.4 6.3 81 1.4 WNW 6 6 3 3 1018.6 1018.5 0.2
18/11:00pm 9.1 8.1 5.5 78 1.6 CALM 0 0 0 0 1018.7 1018.6 0.2
18/10:30pm 10.4 7.3 5.4 71 2.3 S 11 13 6 7 1018.5 1018.4 0.2
18/10:00pm 9.9 6.5 5.7 75 1.9 S 13 15 7 8 1018.4 1018.3 0.2
18/09:30pm 10.6 6.4 5.6 71 2.3 S 17 22 9 12 1018.3 1018.2 0.2
18/09:00pm 11.1 6.9 5.8 70 2.5 S 17 26 9 14 1018.1 1018.0 0.2
18/08:30pm 12.3 7.2 6.1 66 2.9 SSW 22 28 12 15 1017.8 1017.7 0.2
18/08:00pm 13.0 8.0 6.6 65 3.1 S 22 32 12 17 1017.6 1017.5 0.2
18/07:30pm 12.9 8.0 6.7 66 3.0 SSW 22 28 12 15 1017.3 1017.2 0.2
18/07:00pm 15.1 10.1 6.4 56 4.2 S 22 33 12 18 1017.0 1016.9 0.2
18/06:30pm 15.7 10.2 5.9 52 4.7 S 24 43 13 23 1016.8 1016.7 0.2
18/06:00pm 15.2 9.7 5.7 53 4.5 SSW 24 32 13 17 1016.5 1016.4 0.2
18/05:30pm 14.3 8.6 4.9 53 4.4 SSW 24 33 13 18 1016.3 1016.2 0.2
18/05:00pm 16.3 10.4 5.9 50 5.0 S 26 35 14 19 1016.1 1016.0 0.2
18/04:30pm 16.1 10.5 7.3 56 4.4 S 26 39 14 21 1015.9 1015.8 0.2
18/04:00pm 15.4 9.3 6.4 55 4.4 SSW 28 39 15 21 1015.8 1015.7 0.2
18/03:30pm 16.3 9.8 6.4 52 4.8 SSW 30 43 16 23 1015.5 1015.5 0.2
18/03:00pm 17.6 10.8 6.8 49 5.4 SSW 32 48 17 26 1015.4 1015.4 0.2
18/02:30pm 17.0 9.8 5.9 48 5.4 SW 33 44 18 24 1015.3 1015.3 0.2
18/02:00pm 17.0 9.7 5.3 46 5.6 SSW 33 48 18 26 1015.0 1015.0 0.2
18/01:30pm 18.2 11.6 7.6 50 5.4 SSW 32 54 17 29 1014.6 1014.6 0.2
18/01:21pm 15.9 8.5 5.2 49 5.1 SSW 33 54 18 29 1014.5 1014.5 0.2
18/01:00pm 17.9 11.2 5.8 45 5.9 SSW 30 43 16 23 1014.4 1014.4 0.2
18/12:30pm 17.0 9.7 7.1 52 4.9 SSW 35 48 19 26 1014.1 1014.1 0.2
18/12:00pm 16.7 9.1 7.4 54 4.7 SSW 37 52 20 28 1013.5 1013.5 0.2
18/11:30am 15.5 8.5 6.8 56 4.3 SSW 33 44 18 24 1013.3 1013.3 0.0
18/11:00am 15.6 8.2 6.6 55 4.4 SW 35 48 19 26 1012.8 1012.8 0.0
18/10:30am 15.3 7.8 6.3 55 4.4 SSW 35 50 19 27 1012.3 1012.3 0.0
18/10:00am 15.2 7.5 7.3 59 3.9 SSW 37 48 20 26 1011.9 1011.9 0.0
18/09:30am 15.5 9.1 9.4 67 3.2 SW 33 46 18 25 1011.5 1011.5 0.0
18/09:00am 12.9 7.5 9.5 80 1.7 SW 28 43 15 23 1011.1 1011.1 0.6
18/08:30am 13.4 7.2 8.0 70 2.7 SW 30 39 16 21 1010.8 1010.8 0.6
18/08:00am 12.9 6.7 8.0 72 2.4 SW 30 43 16 23 1010.3 1010.3 0.6
18/07:30am 12.6 7.7 8.3 75 2.1 SW 24 33 13 18 1009.9 1009.9 0.6
18/07:00am 13.2 8.5 7.6 69 2.7 SW 22 30 12 16 1009.3 1009.3 0.6
18/06:30am 12.5 7.3 7.2 70 2.6 SW 24 39 13 21 1008.9 1008.9 0.6
18/06:00am 12.5 6.5 7.2 70 2.6 WSW 28 41 15 22 1008.4 1008.4 0.6
18/05:30am 12.4 6.4 6.9 69 2.6 WSW 28 43 15 23 1007.8 1007.8 0.6
18/05:00am 12.6 6.5 8.1 74 2.2 WSW 30 39 16 21 1007.4 1007.4 0.6
18/04:30am 12.9 6.2 8.0 72 2.4 WSW 33 44 18 24 1007.0 1007.0 0.6
18/04:00am 12.9 6.7 9.2 78 1.9 WSW 32 43 17 23 1006.5 1006.5 0.6
18/03:30am 11.6 6.6 9.7 88 1.0 SW 26 44 14 24 1006.5 1006.5 0.6
18/03:19am 12.4 5.9 9.1 80 1.7 W 33 50 18 27 1006.4 1006.4 0.6
18/03:17am 13.6 7.5 9.6 77 2.0 W 32 50 17 27 1006.3 1006.3 0.6
18/03:00am 13.8 8.4 9.6 76 2.2 W 28 39 15 21 1006.0 1006.0 0.6
18/02:30am 13.7 8.8 9.9 78 2.0 W 26 37 14 20 1006.5 1006.5 0.6
18/02:00am 13.7 9.1 9.7 77 2.1 WNW 24 33 13 18 1006.7 1006.7 0.6
18/01:30am 13.4 8.8 9.5 77 2.0 W 24 32 13 17 1006.8 1006.8 0.6
18/01:00am 13.6 9.5 10.2 80 1.8 W 22 30 12 16 1006.8 1006.8 0.6
18/12:30am 13.6 9.6 10.4 81 1.7 W 22 30 12 16 1006.6 1006.6 0.6
18/12:00am 13.6 10.1 10.8 83 1.5 W 20 33 11 18 1006.6 1006.6 0.6
 
Date/Time
EDT
Temp
°C
App
Temp
°C
Dew
Point
°C
Rel
Hum
%
Delta-T
°C
Wind Press
QNH
hPa
Press
MSL
hPa
Rain since
9am
mm
Dir  Spd
km/h
Gust
km/h
Spd
kts
Gust
kts
17/11:30pm 14.1 9.7 11.8 86 1.2 W 26 35 14 19 1006.6 1006.6 0.6
17/11:00pm 14.3 10.4 12.2 87 1.1 W 24 33 13 18 1006.8 1006.8 0.6
17/10:35pm 14.5 11.2 12.9 90 0.9 W 22 32 12 17 1006.4 1006.4 0.6
17/10:30pm 14.5 10.9 12.9 90 0.9 W 24 35 13 19 1006.4 1006.4 0.6
17/10:07pm 15.1 12.5 13.8 92 0.7 WNW 20 35 11 19 1006.0 1006.0 0.6
17/10:00pm 15.1 11.7 13.8 92 0.7 WNW 24 35 13 19 1006.2 1006.2 0.6
17/09:30pm 15.0 12.4 13.7 92 0.7 WNW 20 28 11 15 1006.1 1006.1 0.6
17/09:23pm 14.9 11.9 13.6 92 0.7 WNW 22 32 12 17 1005.8 1005.8 0.6
17/09:07pm 15.1 12.6 14.0 93 0.6 WNW 20 28 11 15 1005.8 1005.8 0.6
17/09:06pm 15.1 12.6 14.0 93 0.6 WNW 20 28 11 15 1005.6 1005.6 0.6
17/09:00pm 15.0 12.4 13.9 93 0.6 WNW 20 28 11 15 1005.6 1005.6 0.6
17/08:42pm 15.1 12.6 14.0 93 0.6 WNW 20 28 11 15 1005.3 1005.3 0.6
17/08:30pm 15.2 12.7 14.2 94 0.6 WNW 20 30 11 16 1005.7 1005.7 0.6
17/08:22pm 15.2 12.9 14.2 94 0.6 WNW 19 26 10 14 1005.4 1005.4 0.2
17/08:00pm 15.3 13.1 14.3 94 0.6 NW 19 26 10 14 1005.3 1005.3 0.2
17/07:53pm 15.3 12.9 14.3 94 0.6 NW 20 26 11 14 1005.4 1005.4 0.2
17/07:30pm 15.2 12.3 14.1 93 0.6 NW 22 30 12 16 1005.2 1005.2 0.2
17/07:04pm 15.8 12.6 14.2 90 0.9 NW 24 32 13 17 1005.1 1005.1 0.0
17/07:02pm 15.8 12.5 14.0 89 1.0 NW 24 32 13 17 1004.9 1004.9 0.0
17/07:00pm 15.9 13.0 14.1 89 1.0 NW 22 32 12 17 1004.9 1004.9 0.0
17/06:59pm 15.9 13.0 13.9 88 1.1 NW 22 32 12 17 1004.9 1004.9 0.0
17/06:30pm 15.9 13.3 13.9 88 1.1 NW 20 28 11 15 1004.9 1004.9 0.0
17/06:27pm 15.8 13.2 13.8 88 1.1 NW 20 28 11 15 1005.0 1005.0 0.0
17/06:08pm 15.8 13.4 13.8 88 1.1 NW 19 24 10 13 1004.9 1004.9 0.0
17/06:00pm 15.9 13.2 13.6 86 1.3 NW 20 26 11 14 1004.7 1004.7 0.0
17/05:30pm 16.2 13.5 13.5 84 1.5 NW 20 28 11 15 1004.8 1004.8 0.0
17/05:00pm 16.2 13.8 13.7 85 1.4 NW 19 26 10 14 1005.0 1005.0 0.0
17/04:32pm 16.4 13.7 13.5 83 1.6 NW 20 26 11 14 1005.1 1005.1 0.0
17/04:30pm 16.6 14.0 13.7 83 1.6 NW 20 26 11 14 1005.1 1005.1 0.0
17/04:00pm 17.1 14.2 14.0 82 1.8 NW 22 28 12 15 1005.1 1005.1 0.0
17/03:30pm 17.2 14.6 13.7 80 2.0 NW 20 28 11 15 1005.3 1005.3 0.0
17/03:00pm 17.7 14.9 13.2 75 2.5 NW 20 24 11 13 1005.1 1005.1 0.0
17/02:30pm 18.0 14.7 12.7 71 3.0 NW 22 28 12 15 1005.5 1005.5 0.0
17/02:00pm 18.6 14.9 12.6 68 3.4 NW 24 30 13 16 1005.7 1005.7 0.0
17/01:30pm 19.3 16.0 13.9 71 3.1 NW 24 30 13 16 1005.9 1005.9 0.0
17/01:00pm 18.5 15.5 13.6 73 2.8 NW 22 30 12 16 1006.1 1006.1 0.0
17/12:30pm 19.3 16.1 14.3 73 2.9 NW 24 32 13 17 1006.1 1006.1 0.0
17/12:00pm 19.0 15.6 13.8 72 3.0 NW 24 28 13 15 1006.2 1006.2 0.0
17/11:30am 19.2 15.9 14.0 72 3.0 NW 24 30 13 16 1006.2 1006.2 0.0
17/11:00am 18.8 15.4 13.6 72 3.0 NW 24 32 13 17 1006.6 1006.6 0.0
17/10:30am 18.8 15.9 12.8 68 3.4 NW 20 32 11 17 1006.6 1006.6 0.0
17/10:00am 18.0 16.1 12.9 72 2.9 NW 15 20 8 11 1006.7 1006.7 0.0
17/09:30am 17.9 15.8 12.4 70 3.1 NNW 15 24 8 13 1007.0 1007.0 0.0
17/09:00am 16.7 15.2 12.0 74 2.6 NNE 11 19 6 10 1007.0 1007.0 1.0
17/08:30am 15.6 14.0 11.6 77 2.2 NNE 11 17 6 9 1007.1 1007.1 1.0
17/08:00am 14.5 12.6 11.7 83 1.5 NNE 13 19 7 10 1006.9 1006.9 1.0
17/07:30am 13.6 12.3 11.3 86 1.2 NNE 9 13 5 7 1007.2 1007.2 1.0
17/07:00am 13.2 11.1 11.1 87 1.1 NNE 13 17 7 9 1007.3 1007.3 1.0
17/06:30am 13.8 12.2 11.7 87 1.1 N 11 13 6 7 1007.3 1007.3 1.0
17/06:00am 14.1 12.3 12.1 88 1.1 N 13 17 7 9 1007.2 1007.2 1.0
17/05:30am 13.8 11.6 12.0 89 1.0 NNW 15 22 8 12 1007.0 1007.0 1.0
17/05:00am 13.2 10.9 11.6 90 0.9 NW 15 19 8 10 1006.8 1006.8 1.0
17/04:30am 13.2 10.2 11.8 91 0.7 NW 19 24 10 13 1006.7 1006.7 1.0
17/04:00am 9.9 8.9 8.7 92 0.6 W 4 9 2 5 1006.1 1006.1 1.0
17/03:30am 10.5 9.0 9.3 92 0.6 NE 7 9 4 5 1006.1 1006.1 1.0
17/03:00am 10.3 8.9 8.7 90 0.8 NNW 6 7 3 4 1005.9 1005.9 1.0
17/02:30am 11.3 8.8 9.7 90 0.8 NNE 13 17 7 9 1005.7 1005.7 1.0
17/02:00am 11.5 9.0 9.8 89 0.9 NNE 13 17 7 9 1006.4 1006.4 1.0
17/01:30am 12.0 9.6 10.1 88 1.0 NNE 13 17 7 9 1007.1 1007.1 1.0
17/01:00am 12.4 10.4 10.3 87 1.1 NNE 11 15 6 8 1007.8 1007.8 1.0
17/12:30am 12.9 11.0 10.4 85 1.3 NNE 11 15 6 8 1008.2 1008.2 1.0
17/12:00am 13.5 11.7 11.0 85 1.3 NNE 11 15 6 8 1008.8 1008.8 1.0
 
Date/Time
EDT
Temp
°C
App
Temp
°C
Dew
Point
°C
Rel
Hum
%
Delta-T
°C
Wind Press
QNH
hPa
Press
MSL
hPa
Rain since
9am
mm
Dir  Spd
km/h
Gust
km/h
Spd
kts
Gust
kts
16/11:30pm 13.6 11.8 11.0 84 1.4 N 11 13 6 7 1009.3 1009.3 1.0
16/11:00pm 14.2 11.6 10.8 80 1.8 NNW 15 20 8 11 1009.5 1009.5 1.0
16/10:30pm 14.9 12.0 11.1 78 2.0 NW 17 22 9 12 1010.1 1010.1 1.0
16/10:00pm 14.7 12.2 10.9 78 2.0 NW 15 22 8 12 1010.1 1010.1 1.0
16/09:30pm 14.9 11.4 10.9 77 2.1 NW 20 26 11 14 1010.2 1010.2 1.0
16/09:00pm 15.0 11.6 11.2 78 2.0 WNW 20 26 11 14 1010.2 1010.2 1.0
16/08:30pm 14.8 10.1 10.6 76 2.2 WNW 26 32 14 17 1010.0 1010.0 1.0
16/08:00pm 14.9 10.3 10.9 77 2.1 NW 26 37 14 20 1009.8 1009.8 1.0
16/07:30pm 16.4 12.7 11.6 73 2.6 NW 22 32 12 17 1009.6 1009.6 1.0
16/07:00pm 16.4 11.8 11.1 71 2.9 NW 26 33 14 18 1009.6 1009.6 1.0
16/06:30pm 16.2 12.3 10.9 71 2.8 NW 22 30 12 16 1009.9 1009.9 1.0
16/06:00pm 16.4 13.4 12.4 77 2.2 NW 20 28 11 15 1010.2 1010.2 1.0
16/05:30pm 16.0 11.9 11.6 75 2.4 NW 24 33 13 18 1010.5 1010.5 1.0
16/05:00pm 18.3 14.6 12.7 70 3.1 NW 24 30 13 16 1010.8 1010.8 1.0
16/04:30pm 17.2 13.5 12.7 75 2.5 NW 24 32 13 17 1011.1 1011.1 1.0
16/04:00pm 18.1 15.0 13.4 74 2.7 WNW 22 30 12 16 1011.5 1011.5 1.0

Other Formats:

Comma delimited format used in spreadsheet applications
http://www.bom.gov.au/fwo/IDT60801/IDT60801.94956.axf

JavaScript Object Notation format (JSON) in row-major order
http://www.bom.gov.au/fwo/IDT60801/IDT60801.94956.json